Nissyomaru — JD2650 — position and weather

sailwx.info

Track history (hours):
 
Tides and Currents Weather Stations Pressure Air Temp Water Temp Dewpoint Dewpoint Depression Visibility Wind Speed Wind Dir Waves Ship Positions

Nissyomaru

Last reported at 2014-Jul-20 22:09 UTC. Time now 2014-Jul-24 08:31 UTC.
Position N 35°54' E 140°59'.

Length 75 m; draft 4 m.

Type: Cargo ship. MMSI: 431000572.

Date/timePositionNaut miles runAvg speedWind from/ knotsBaromVisibWave heightAir tempDewpointWater temp
2014-Jul-20 22:09N 35°54' E 140°59'911.0
2014-Jul-20 21:20N 35°45' E 140°57'810.8
2014-Jul-20 20:33N 35°37' E 140°53'1211.3
2014-Jul-20 19:31N 35°28' E 140°44'1211.6
2014-Jul-20 18:32N 35°19' E 140°36'1211.3
2014-Jul-20 17:28N 35°09' E 140°26'1111.5
2014-Jul-20 16:33N 35°02' E 140°17'1311.7
2014-Jul-20 15:26N 34°55' E 140°03'  
2014-Jul-18 09:09N 34°53' E 138°31'1313.0
2014-Jul-18 08:11N 35°04' E 138°39'41 2.5
2014-Jul-17 15:32N 34°57' E 139°29'1212.3
2014-Jul-17 14:33N 35°04' E 139°40'1211.7
2014-Jul-17 13:33N 35°15' E 139°46'1010.2
2014-Jul-17 12:32N 35°24' E 139°40'0 0.0
2014-Jul-17 11:32N 35°24' E 139°40'0 0.0
2014-Jul-17 10:32N 35°24' E 139°40'0 0.0
2014-Jul-17 09:32N 35°24' E 139°40'1 1.4
2014-Jul-17 08:31N 35°23' E 139°41'0 0.0
2014-Jul-17 07:31N 35°23' E 139°41'0 0.0
2014-Jul-17 06:31N 35°23' E 139°41'0 0.0
2014-Jul-17 05:31N 35°23' E 139°41'0 0.0
2014-Jul-17 04:31N 35°23' E 139°41'0 0.0
2014-Jul-17 03:31N 35°23' E 139°41'0 0.0
2014-Jul-17 02:31N 35°23' E 139°41'0 0.0
2014-Jul-17 01:31N 35°23' E 139°41'0 0.0
2014-Jul-17 00:31N 35°23' E 139°41'0 0.0
2014-Jul-16 23:31N 35°23' E 139°41'0 0.0
2014-Jul-16 22:31N 35°23' E 139°41'0 0.0
2014-Jul-16 21:31N 35°23' E 139°41'0 0.0
2014-Jul-16 20:31N 35°23' E 139°41'0 0.0
2014-Jul-16 19:28N 35°23' E 139°41'0 0.0
2014-Jul-16 18:31N 35°23' E 139°41'6 5.9
2014-Jul-16 17:33N 35°18' E 139°44'1211.8
2014-Jul-16 16:33N 35°06' E 139°45'1311.8
2014-Jul-16 15:27N 34°53' E 139°43'23 0.9
2014-Jul-15 14:34N 34°30' E 139°40'1312.5
2014-Jul-15 13:33N 34°43' E 139°41'1312.7
2014-Jul-15 12:33N 34°56' E 139°42'1312.6
2014-Jul-15 11:33N 35°08' E 139°45'1211.8
2014-Jul-15 10:34N 35°20' E 139°43'1111.2
2014-Jul-15 09:33N 35°29' E 139°50'6 6.0
2014-Jul-15 08:29N 35°35' E 139°51'0 0.0
2014-Jul-15 07:29N 35°35' E 139°51'3 2.9
2014-Jul-15 06:33N 35°37' E 139°48'1 1.3
2014-Jul-15 05:31N 35°38' E 139°49'0 0.0
2014-Jul-15 04:31N 35°38' E 139°49'0 0.0
2014-Jul-15 03:25N 35°38' E 139°49'0 0.0
2014-Jul-15 02:31N 35°38' E 139°49'0 0.1
2014-Jul-15 01:31N 35°38' E 139°49'0 0.1
2014-Jul-15 00:28N 35°38' E 139°49'0 0.0
2014-Jul-14 23:28N 35°38' E 139°49'0 0.0
2014-Jul-14 22:30N 35°38' E 139°49'3 3.3
2014-Jul-14 21:33N 35°36' E 139°50'1 1.1
2014-Jul-14 20:31N 35°35' E 139°52'0 0.0
2014-Jul-14 19:31N 35°35' E 139°52'0 0.0
2014-Jul-14 18:31N 35°35' E 139°52'0 0.0
2014-Jul-14 17:31N 35°35' E 139°52'0 0.0
2014-Jul-14 16:31N 35°35' E 139°52'0 0.1
2014-Jul-14 15:28N 35°35' E 139°51'0 0.0
2014-Jul-14 14:28N 35°35' E 139°51'0 0.0
2014-Jul-14 13:31N 35°35' E 139°51'0 0.0
2014-Jul-14 12:16N 35°35' E 139°51'0 0.0
2014-Jul-14 11:25N 35°35' E 139°51'0 0.0
2014-Jul-14 10:31N 35°35' E 139°51'0 0.0
2014-Jul-14 09:31N 35°35' E 139°52'9 9.2
2014-Jul-14 08:33N 35°26' E 139°51'5 4.7
2014-Jul-14 07:28N 35°21' E 139°54'0 0.0
2014-Jul-14 06:28N 35°21' E 139°54'0 0.0
2014-Jul-14 05:22N 35°21' E 139°54'0 0.0
2014-Jul-14 04:31N 35°21' E 139°54'0 0.0
2014-Jul-14 03:28N 35°21' E 139°54'0 0.0
2014-Jul-14 02:28N 35°21' E 139°54'0 0.0
2014-Jul-14 01:28N 35°21' E 139°54'0 0.0
2014-Jul-14 00:19N 35°21' E 139°54'0 0.0
2014-Jul-13 23:28N 35°21' E 139°54'0 0.0
2014-Jul-13 22:31N 35°21' E 139°54'0 0.0
2014-Jul-13 21:31N 35°21' E 139°54'0 0.0
2014-Jul-13 20:28N 35°21' E 139°54'0 0.0
2014-Jul-13 19:13N 35°21' E 139°54'0 0.0
2014-Jul-13 18:28N 35°21' E 139°54'0 0.0
2014-Jul-13 17:22N 35°21' E 139°54'0 0.0
2014-Jul-13 16:31N 35°21' E 139°54'0 0.0
2014-Jul-13 15:28N 35°21' E 139°54'0 0.0
2014-Jul-13 14:22N 35°21' E 139°54'0 0.0
2014-Jul-13 13:22N 35°21' E 139°54'0 0.0
2014-Jul-13 12:25N 35°21' E 139°54'0 0.0
2014-Jul-13 11:10N 35°21' E 139°54'0 0.0
2014-Jul-13 10:22N 35°21' E 139°54'0 0.0
2014-Jul-13 09:22N 35°21' E 139°54'0 0.0
2014-Jul-13 08:22N 35°21' E 139°54'0 0.0
2014-Jul-13 07:31N 35°21' E 139°54'0 0.0
2014-Jul-13 06:28N 35°21' E 139°54'0 0.0
2014-Jul-13 05:28N 35°21' E 139°54'0 0.0
2014-Jul-13 04:28N 35°21' E 139°54'0 0.0
2014-Jul-13 03:22N 35°21' E 139°54'0 0.0
2014-Jul-13 02:28N 35°21' E 139°54'0 0.0
2014-Jul-13 01:28N 35°21' E 139°54'0 0.0
2014-Jul-13 00:22N 35°21' E 139°54'4 4.7
2014-Jul-12 23:34N 35°23' E 139°50'7 7.2
2014-Jul-12 22:33N 35°17' E 139°46'1111.0
2014-Jul-12 21:34N 35°06' E 139°45'1212.4
2014-Jul-12 20:33N 34°58' E 139°33'1313.4
2014-Jul-12 19:33N 34°50' E 139°20'  
Track history (hours):
 
Tides and Currents Weather Stations Pressure Air Temp Water Temp Dewpoint Dewpoint Depression Visibility Wind Speed Wind Dir Waves Ship Positions

Nissyomaru

Last reported at 2014-Jul-20 22:09 UTC. Time now 2014-Jul-24 08:31 UTC.
Position N 35°54' E 140°59'.

Length 75 m; draft 4 m.

Type: Cargo ship. MMSI: 431000572.

Date/timePositionNaut miles runAvg speedWind from/ knotsBaromVisibWave heightAir tempDewpointWater temp
2014-Jul-20 22:09N 35°54' E 140°59'911.0
2014-Jul-20 21:20N 35°45' E 140°57'810.8
2014-Jul-20 20:33N 35°37' E 140°53'1211.3
2014-Jul-20 19:31N 35°28' E 140°44'1211.6
2014-Jul-20 18:32N 35°19' E 140°36'1211.3
2014-Jul-20 17:28N 35°09' E 140°26'1111.5
2014-Jul-20 16:33N 35°02' E 140°17'1311.7
2014-Jul-20 15:26N 34°55' E 140°03'  
2014-Jul-18 09:09N 34°53' E 138°31'1313.0
2014-Jul-18 08:11N 35°04' E 138°39'41 2.5
2014-Jul-17 15:32N 34°57' E 139°29'1212.3
2014-Jul-17 14:33N 35°04' E 139°40'1211.7
2014-Jul-17 13:33N 35°15' E 139°46'1010.2
2014-Jul-17 12:32N 35°24' E 139°40'0 0.0
2014-Jul-17 11:32N 35°24' E 139°40'0 0.0
2014-Jul-17 10:32N 35°24' E 139°40'0 0.0
2014-Jul-17 09:32N 35°24' E 139°40'1 1.4
2014-Jul-17 08:31N 35°23' E 139°41'0 0.0
2014-Jul-17 07:31N 35°23' E 139°41'0 0.0
2014-Jul-17 06:31N 35°23' E 139°41'0 0.0
2014-Jul-17 05:31N 35°23' E 139°41'0 0.0
2014-Jul-17 04:31N 35°23' E 139°41'0 0.0
2014-Jul-17 03:31N 35°23' E 139°41'0 0.0
2014-Jul-17 02:31N 35°23' E 139°41'0 0.0
2014-Jul-17 01:31N 35°23' E 139°41'0 0.0
2014-Jul-17 00:31N 35°23' E 139°41'0 0.0
2014-Jul-16 23:31N 35°23' E 139°41'0 0.0
2014-Jul-16 22:31N 35°23' E 139°41'0 0.0
2014-Jul-16 21:31N 35°23' E 139°41'0 0.0
2014-Jul-16 20:31N 35°23' E 139°41'0 0.0
2014-Jul-16 19:28N 35°23' E 139°41'0 0.0
2014-Jul-16 18:31N 35°23' E 139°41'6 5.9
2014-Jul-16 17:33N 35°18' E 139°44'1211.8
2014-Jul-16 16:33N 35°06' E 139°45'1311.8
2014-Jul-16 15:27N 34°53' E 139°43'23 0.9
2014-Jul-15 14:34N 34°30' E 139°40'1312.5
2014-Jul-15 13:33N 34°43' E 139°41'1312.7
2014-Jul-15 12:33N 34°56' E 139°42'1312.6
2014-Jul-15 11:33N 35°08' E 139°45'1211.8
2014-Jul-15 10:34N 35°20' E 139°43'1111.2
2014-Jul-15 09:33N 35°29' E 139°50'6 6.0
2014-Jul-15 08:29N 35°35' E 139°51'0 0.0
2014-Jul-15 07:29N 35°35' E 139°51'3 2.9
2014-Jul-15 06:33N 35°37' E 139°48'1 1.3
2014-Jul-15 05:31N 35°38' E 139°49'0 0.0
2014-Jul-15 04:31N 35°38' E 139°49'0 0.0
2014-Jul-15 03:25N 35°38' E 139°49'0 0.0
2014-Jul-15 02:31N 35°38' E 139°49'0 0.1
2014-Jul-15 01:31N 35°38' E 139°49'0 0.1
2014-Jul-15 00:28N 35°38' E 139°49'0 0.0
2014-Jul-14 23:28N 35°38' E 139°49'0 0.0
2014-Jul-14 22:30N 35°38' E 139°49'3 3.3
2014-Jul-14 21:33N 35°36' E 139°50'1 1.1
2014-Jul-14 20:31N 35°35' E 139°52'0 0.0
2014-Jul-14 19:31N 35°35' E 139°52'0 0.0
2014-Jul-14 18:31N 35°35' E 139°52'0 0.0
2014-Jul-14 17:31N 35°35' E 139°52'0 0.0
2014-Jul-14 16:31N 35°35' E 139°52'0 0.1
2014-Jul-14 15:28N 35°35' E 139°51'0 0.0
2014-Jul-14 14:28N 35°35' E 139°51'0 0.0
2014-Jul-14 13:31N 35°35' E 139°51'0 0.0
2014-Jul-14 12:16N 35°35' E 139°51'0 0.0
2014-Jul-14 11:25N 35°35' E 139°51'0 0.0
2014-Jul-14 10:31N 35°35' E 139°51'0 0.0
2014-Jul-14 09:31N 35°35' E 139°52'9 9.2
2014-Jul-14 08:33N 35°26' E 139°51'5 4.7
2014-Jul-14 07:28N 35°21' E 139°54'0 0.0
2014-Jul-14 06:28N 35°21' E 139°54'0 0.0
2014-Jul-14 05:22N 35°21' E 139°54'0 0.0
2014-Jul-14 04:31N 35°21' E 139°54'0 0.0
2014-Jul-14 03:28N 35°21' E 139°54'0 0.0
2014-Jul-14 02:28N 35°21' E 139°54'0 0.0
2014-Jul-14 01:28N 35°21' E 139°54'0 0.0
2014-Jul-14 00:19N 35°21' E 139°54'0 0.0
2014-Jul-13 23:28N 35°21' E 139°54'0 0.0
2014-Jul-13 22:31N 35°21' E 139°54'0 0.0
2014-Jul-13 21:31N 35°21' E 139°54'0 0.0
2014-Jul-13 20:28N 35°21' E 139°54'0 0.0
2014-Jul-13 19:13N 35°21' E 139°54'0 0.0
2014-Jul-13 18:28N 35°21' E 139°54'0 0.0
2014-Jul-13 17:22N 35°21' E 139°54'0 0.0
2014-Jul-13 16:31N 35°21' E 139°54'0 0.0
2014-Jul-13 15:28N 35°21' E 139°54'0 0.0
2014-Jul-13 14:22N 35°21' E 139°54'0 0.0
2014-Jul-13 13:22N 35°21' E 139°54'0 0.0
2014-Jul-13 12:25N 35°21' E 139°54'0 0.0
2014-Jul-13 11:10N 35°21' E 139°54'0 0.0
2014-Jul-13 10:22N 35°21' E 139°54'0 0.0
2014-Jul-13 09:22N 35°21' E 139°54'0 0.0
2014-Jul-13 08:22N 35°21' E 139°54'0 0.0
2014-Jul-13 07:31N 35°21' E 139°54'0 0.0
2014-Jul-13 06:28N 35°21' E 139°54'0 0.0
2014-Jul-13 05:28N 35°21' E 139°54'0 0.0
2014-Jul-13 04:28N 35°21' E 139°54'0 0.0
2014-Jul-13 03:22N 35°21' E 139°54'0 0.0
2014-Jul-13 02:28N 35°21' E 139°54'0 0.0
2014-Jul-13 01:28N 35°21' E 139°54'0 0.0
2014-Jul-13 00:22N 35°21' E 139°54'4 4.7
2014-Jul-12 23:34N 35°23' E 139°50'7 7.2
2014-Jul-12 22:33N 35°17' E 139°46'1111.0
2014-Jul-12 21:34N 35°06' E 139°45'1212.4
2014-Jul-12 20:33N 34°58' E 139°33'1313.4
2014-Jul-12 19:33N 34°50' E 139°20'  

Dump ship's entire track history